LFSG METAR and TAF | Updated Today

LFSG METAR

Épinal-Mirecourt Airport

Observation time: 25 min. ago

LFSG 291100Z AUTO 36009KT 320V040 9999 FEW049 SCT058 BKN068 14/02 Q1014

Need help? Read our tutorial on how to read METARs or read the parsed version below.

Épinal-Mirecourt Airport (LFSG) METAR

  • Weather conditions on Sun, 29 May 2022 11:00:00 +0000 (25 min. ago):
  • Present conditions: Dry
  • Clouds: A few at 1494 meters; scattered at 1768 meters; broken sky at 2073 meters
  • Visibility: Greater than 10 km
  • Wind: 360 degrees at 9 knots
  • Temperature: 14 celsius
  • Dew point: 2 celsius
  • Pressure: 1014 millibars
  • Remarks: None


Useful to know...